sensor_id;sensor_type;location;lat;lon;timestamp;P1;durP1;ratioP1;P2;durP2;ratioP2
74363;SDS011;62797;49.740;10.154;2024-01-11T00:02:23;107.95;;;38.22;;
74363;SDS011;62797;49.740;10.154;2024-01-11T00:04:49;103.43;;;38.47;;
74363;SDS011;62797;49.740;10.154;2024-01-11T00:07:15;95.80;;;33.03;;
74363;SDS011;62797;49.740;10.154;2024-01-11T00:09:41;84.50;;;33.17;;
74363;SDS011;62797;49.740;10.154;2024-01-11T00:12:08;80.03;;;30.13;;
74363;SDS011;62797;49.740;10.154;2024-01-11T00:14:34;87.53;;;32.55;;
74363;SDS011;62797;49.740;10.154;2024-01-11T00:17:01;89.55;;;32.17;;
74363;SDS011;62797;49.740;10.154;2024-01-11T00:21:52;75.07;;;28.92;;
74363;SDS011;62797;49.740;10.154;2024-01-11T00:24:18;81.35;;;31.17;;
74363;SDS011;62797;49.740;10.154;2024-01-11T00:29:10;86.93;;;34.17;;
74363;SDS011;62797;49.740;10.154;2024-01-11T00:31:36;85.65;;;32.92;;
74363;SDS011;62797;49.740;10.154;2024-01-11T00:34:03;79.72;;;32.53;;
74363;SDS011;62797;49.740;10.154;2024-01-11T00:36:29;65.90;;;28.17;;
74363;SDS011;62797;49.740;10.154;2024-01-11T00:38:54;67.60;;;26.38;;
74363;SDS011;62797;49.740;10.154;2024-01-11T00:43:46;75.63;;;26.30;;
74363;SDS011;62797;49.740;10.154;2024-01-11T00:48:37;80.85;;;30.33;;
74363;SDS011;62797;49.740;10.154;2024-01-11T00:51:04;86.95;;;29.85;;
74363;SDS011;62797;49.740;10.154;2024-01-11T00:53:31;84.93;;;30.45;;
74363;SDS011;62797;49.740;10.154;2024-01-11T00:55:59;92.88;;;32.88;;
74363;SDS011;62797;49.740;10.154;2024-01-11T00:58:25;80.93;;;31.98;;
74363;SDS011;62797;49.740;10.154;2024-01-11T01:00:51;86.57;;;30.75;;
74363;SDS011;62797;49.740;10.154;2024-01-11T01:03:18;92.72;;;33.25;;
74363;SDS011;62797;49.740;10.154;2024-01-11T01:05:47;98.35;;;36.08;;
74363;SDS011;62797;49.740;10.154;2024-01-11T01:08:14;75.32;;;27.83;;
74363;SDS011;62797;49.740;10.154;2024-01-11T01:10:40;66.55;;;27.02;;
74363;SDS011;62797;49.740;10.154;2024-01-11T01:13:05;69.50;;;27.40;;
74363;SDS011;62797;49.740;10.154;2024-01-11T01:17:59;71.03;;;27.20;;
74363;SDS011;62797;49.740;10.154;2024-01-11T01:20:24;81.90;;;29.70;;
74363;SDS011;62797;49.740;10.154;2024-01-11T01:22:50;73.97;;;29.65;;
74363;SDS011;62797;49.740;10.154;2024-01-11T01:27:41;71.53;;;28.65;;
74363;SDS011;62797;49.740;10.154;2024-01-11T01:30:07;95.93;;;32.90;;
74363;SDS011;62797;49.740;10.154;2024-01-11T01:32:34;78.03;;;29.85;;
74363;SDS011;62797;49.740;10.154;2024-01-11T01:34:59;75.07;;;31.75;;
74363;SDS011;62797;49.740;10.154;2024-01-11T01:39:51;75.82;;;27.77;;
74363;SDS011;62797;49.740;10.154;2024-01-11T01:44:42;76.00;;;29.45;;
74363;SDS011;62797;49.740;10.154;2024-01-11T01:49:35;78.40;;;28.80;;
74363;SDS011;62797;49.740;10.154;2024-01-11T01:52:02;67.25;;;26.30;;
74363;SDS011;62797;49.740;10.154;2024-01-11T01:54:28;87.60;;;29.73;;
74363;SDS011;62797;49.740;10.154;2024-01-11T01:56:56;79.45;;;30.77;;
74363;SDS011;62797;49.740;10.154;2024-01-11T01:59:23;78.95;;;28.80;;
74363;SDS011;62797;49.740;10.154;2024-01-11T02:01:50;82.80;;;30.90;;
74363;SDS011;62797;49.740;10.154;2024-01-11T02:06:44;71.15;;;28.95;;
74363;SDS011;62797;49.740;10.154;2024-01-11T02:09:11;67.90;;;25.13;;
74363;SDS011;62797;49.740;10.154;2024-01-11T02:11:38;81.32;;;27.05;;
74363;SDS011;62797;49.740;10.154;2024-01-11T02:14:06;81.43;;;28.88;;
74363;SDS011;62797;49.740;10.154;2024-01-11T02:16:32;81.07;;;29.50;;
74363;SDS011;62797;49.740;10.154;2024-01-11T02:18:58;67.13;;;25.25;;
74363;SDS011;62797;49.740;10.154;2024-01-11T02:21:24;65.88;;;27.50;;
74363;SDS011;62797;49.740;10.154;2024-01-11T02:23:56;79.00;;;30.02;;
74363;SDS011;62797;49.740;10.154;2024-01-11T02:26:32;78.13;;;29.38;;
74363;SDS011;62797;49.740;10.154;2024-01-11T02:28:58;76.75;;;28.77;;
74363;SDS011;62797;49.740;10.154;2024-01-11T02:33:51;74.68;;;26.65;;
74363;SDS011;62797;49.740;10.154;2024-01-11T02:36:20;77.78;;;29.13;;
74363;SDS011;62797;49.740;10.154;2024-01-11T02:38:46;76.63;;;28.80;;
74363;SDS011;62797;49.740;10.154;2024-01-11T02:41:16;79.57;;;27.40;;
74363;SDS011;62797;49.740;10.154;2024-01-11T02:43:47;65.22;;;25.33;;
74363;SDS011;62797;49.740;10.154;2024-01-11T02:46:14;71.65;;;26.23;;
74363;SDS011;62797;49.740;10.154;2024-01-11T02:48:40;62.42;;;25.25;;
74363;SDS011;62797;49.740;10.154;2024-01-11T02:51:06;72.07;;;27.60;;
74363;SDS011;62797;49.740;10.154;2024-01-11T02:55:59;85.72;;;29.52;;
74363;SDS011;62797;49.740;10.154;2024-01-11T02:58:27;63.25;;;25.60;;
74363;SDS011;62797;49.740;10.154;2024-01-11T03:03:19;69.30;;;27.35;;
74363;SDS011;62797;49.740;10.154;2024-01-11T03:08:10;92.90;;;31.95;;
74363;SDS011;62797;49.740;10.154;2024-01-11T03:10:37;104.40;;;38.88;;
74363;SDS011;62797;49.740;10.154;2024-01-11T03:13:06;105.70;;;39.92;;
74363;SDS011;62797;49.740;10.154;2024-01-11T03:15:32;80.20;;;33.85;;
74363;SDS011;62797;49.740;10.154;2024-01-11T03:20:23;79.82;;;29.95;;
74363;SDS011;62797;49.740;10.154;2024-01-11T03:25:16;95.28;;;34.20;;
74363;SDS011;62797;49.740;10.154;2024-01-11T03:30:07;94.93;;;35.40;;
74363;SDS011;62797;49.740;10.154;2024-01-11T03:34:59;74.18;;;27.15;;
74363;SDS011;62797;49.740;10.154;2024-01-11T03:39:50;78.00;;;28.40;;
74363;SDS011;62797;49.740;10.154;2024-01-11T03:44:42;147.77;;;52.53;;
74363;SDS011;62797;49.740;10.154;2024-01-11T03:49:33;116.18;;;42.95;;
74363;SDS011;62797;49.740;10.154;2024-01-11T03:54:24;134.40;;;49.40;;
74363;SDS011;62797;49.740;10.154;2024-01-11T03:59:15;109.53;;;36.10;;
74363;SDS011;62797;49.740;10.154;2024-01-11T04:04:07;77.10;;;29.35;;
74363;SDS011;62797;49.740;10.154;2024-01-11T04:08:59;80.75;;;29.50;;
74363;SDS011;62797;49.740;10.154;2024-01-11T04:13:53;77.50;;;28.02;;
74363;SDS011;62797;49.740;10.154;2024-01-11T04:18:45;62.10;;;19.95;;
74363;SDS011;62797;49.740;10.154;2024-01-11T04:23:50;60.97;;;22.17;;
74363;SDS011;62797;49.740;10.154;2024-01-11T04:26:16;69.93;;;24.85;;
74363;SDS011;62797;49.740;10.154;2024-01-11T04:28:43;69.70;;;27.58;;
74363;SDS011;62797;49.740;10.154;2024-01-11T04:31:10;79.13;;;27.65;;
74363;SDS011;62797;49.740;10.154;2024-01-11T04:36:04;67.43;;;24.95;;
74363;SDS011;62797;49.740;10.154;2024-01-11T04:38:31;64.35;;;23.73;;
74363;SDS011;62797;49.740;10.154;2024-01-11T04:43:22;66.95;;;25.20;;
74363;SDS011;62797;49.740;10.154;2024-01-11T04:48:13;69.00;;;28.50;;
74363;SDS011;62797;49.740;10.154;2024-01-11T04:53:04;64.60;;;24.88;;
74363;SDS011;62797;49.740;10.154;2024-01-11T04:57:55;72.20;;;26.60;;
74363;SDS011;62797;49.740;10.154;2024-01-11T05:02:46;70.18;;;26.67;;
74363;SDS011;62797;49.740;10.154;2024-01-11T05:07:38;65.90;;;26.55;;
74363;SDS011;62797;49.740;10.154;2024-01-11T05:12:29;73.20;;;27.52;;
74363;SDS011;62797;49.740;10.154;2024-01-11T05:17:20;69.18;;;26.58;;
74363;SDS011;62797;49.740;10.154;2024-01-11T05:22:11;73.65;;;26.75;;
74363;SDS011;62797;49.740;10.154;2024-01-11T05:24:38;65.40;;;26.38;;
74363;SDS011;62797;49.740;10.154;2024-01-11T05:29:29;59.38;;;25.85;;
74363;SDS011;62797;49.740;10.154;2024-01-11T05:34:20;69.40;;;28.10;;
74363;SDS011;62797;49.740;10.154;2024-01-11T05:39:12;76.63;;;26.83;;
74363;SDS011;62797;49.740;10.154;2024-01-11T05:44:04;75.88;;;26.98;;
74363;SDS011;62797;49.740;10.154;2024-01-11T05:48:56;72.60;;;25.13;;
74363;SDS011;62797;49.740;10.154;2024-01-11T05:53:48;73.15;;;26.70;;
74363;SDS011;62797;49.740;10.154;2024-01-11T05:58:39;81.72;;;30.88;;
74363;SDS011;62797;49.740;10.154;2024-01-11T06:01:05;81.18;;;28.00;;
74363;SDS011;62797;49.740;10.154;2024-01-11T06:05:59;85.43;;;30.23;;
74363;SDS011;62797;49.740;10.154;2024-01-11T06:08:26;101.93;;;34.38;;
74363;SDS011;62797;49.740;10.154;2024-01-11T06:10:53;69.75;;;28.60;;
74363;SDS011;62797;49.740;10.154;2024-01-11T06:15:44;72.43;;;26.73;;
74363;SDS011;62797;49.740;10.154;2024-01-11T06:20:36;71.78;;;26.80;;
74363;SDS011;62797;49.740;10.154;2024-01-11T06:25:27;70.97;;;25.77;;
74363;SDS011;62797;49.740;10.154;2024-01-11T06:30:20;76.43;;;26.80;;
74363;SDS011;62797;49.740;10.154;2024-01-11T06:35:11;73.07;;;26.42;;
74363;SDS011;62797;49.740;10.154;2024-01-11T06:40:03;79.15;;;25.45;;
74363;SDS011;62797;49.740;10.154;2024-01-11T06:42:30;71.63;;;28.02;;
74363;SDS011;62797;49.740;10.154;2024-01-11T06:44:56;74.82;;;27.92;;
74363;SDS011;62797;49.740;10.154;2024-01-11T06:49:47;81.30;;;28.27;;
74363;SDS011;62797;49.740;10.154;2024-01-11T06:54:39;77.95;;;31.13;;
74363;SDS011;62797;49.740;10.154;2024-01-11T06:59:30;70.65;;;30.63;;
74363;SDS011;62797;49.740;10.154;2024-01-11T07:04:22;79.88;;;29.83;;
74363;SDS011;62797;49.740;10.154;2024-01-11T07:09:14;86.28;;;29.30;;
74363;SDS011;62797;49.740;10.154;2024-01-11T07:11:41;89.70;;;29.83;;
74363;SDS011;62797;49.740;10.154;2024-01-11T07:14:08;83.75;;;30.55;;
74363;SDS011;62797;49.740;10.154;2024-01-11T07:18:59;78.30;;;29.77;;
74363;SDS011;62797;49.740;10.154;2024-01-11T07:23:58;82.20;;;35.15;;
74363;SDS011;62797;49.740;10.154;2024-01-11T07:26:24;100.70;;;37.15;;
74363;SDS011;62797;49.740;10.154;2024-01-11T07:28:51;92.38;;;35.08;;
74363;SDS011;62797;49.740;10.154;2024-01-11T07:31:19;93.47;;;34.72;;
74363;SDS011;62797;49.740;10.154;2024-01-11T07:33:46;86.75;;;35.53;;
74363;SDS011;62797;49.740;10.154;2024-01-11T07:38:37;77.97;;;29.85;;
74363;SDS011;62797;49.740;10.154;2024-01-11T07:41:05;92.75;;;35.78;;
74363;SDS011;62797;49.740;10.154;2024-01-11T07:46:01;82.85;;;30.30;;
74363;SDS011;62797;49.740;10.154;2024-01-11T07:48:29;96.05;;;35.25;;
74363;SDS011;62797;49.740;10.154;2024-01-11T07:50:55;84.68;;;31.05;;
74363;SDS011;62797;49.740;10.154;2024-01-11T07:55:47;87.22;;;29.77;;
74363;SDS011;62797;49.740;10.154;2024-01-11T08:00:40;80.90;;;30.83;;
74363;SDS011;62797;49.740;10.154;2024-01-11T08:05:34;75.13;;;28.50;;
74363;SDS011;62797;49.740;10.154;2024-01-11T08:10:28;76.40;;;30.00;;
74363;SDS011;62797;49.740;10.154;2024-01-11T08:12:58;89.18;;;34.92;;
74363;SDS011;62797;49.740;10.154;2024-01-11T08:15:24;74.05;;;29.50;;
74363;SDS011;62797;49.740;10.154;2024-01-11T08:18:01;82.65;;;31.90;;
74363;SDS011;62797;49.740;10.154;2024-01-11T08:20:26;87.90;;;33.88;;
74363;SDS011;62797;49.740;10.154;2024-01-11T08:25:18;85.93;;;32.13;;
74363;SDS011;62797;49.740;10.154;2024-01-11T08:30:13;96.70;;;37.13;;
74363;SDS011;62797;49.740;10.154;2024-01-11T08:32:39;84.32;;;32.00;;
74363;SDS011;62797;49.740;10.154;2024-01-11T08:35:10;80.60;;;32.35;;
74363;SDS011;62797;49.740;10.154;2024-01-11T08:37:37;74.25;;;30.98;;
74363;SDS011;62797;49.740;10.154;2024-01-11T08:40:04;74.40;;;31.50;;
74363;SDS011;62797;49.740;10.154;2024-01-11T08:42:31;77.78;;;27.77;;
74363;SDS011;62797;49.740;10.154;2024-01-11T08:44:57;77.20;;;28.77;;
74363;SDS011;62797;49.740;10.154;2024-01-11T08:49:49;86.03;;;29.77;;
74363;SDS011;62797;49.740;10.154;2024-01-11T08:54:45;96.75;;;34.10;;
74363;SDS011;62797;49.740;10.154;2024-01-11T08:59:37;80.50;;;29.00;;
74363;SDS011;62797;49.740;10.154;2024-01-11T09:02:05;58.88;;;26.60;;
74363;SDS011;62797;49.740;10.154;2024-01-11T09:04:31;71.75;;;28.25;;
74363;SDS011;62797;49.740;10.154;2024-01-11T09:06:57;66.22;;;28.17;;
74363;SDS011;62797;49.740;10.154;2024-01-11T09:09:23;68.35;;;26.58;;
74363;SDS011;62797;49.740;10.154;2024-01-11T09:11:49;84.32;;;30.40;;
74363;SDS011;62797;49.740;10.154;2024-01-11T09:14:15;87.20;;;34.05;;
74363;SDS011;62797;49.740;10.154;2024-01-11T09:16:40;82.68;;;30.15;;
74363;SDS011;62797;49.740;10.154;2024-01-11T09:19:06;88.70;;;34.30;;
74363;SDS011;62797;49.740;10.154;2024-01-11T09:21:33;94.57;;;34.92;;
74363;SDS011;62797;49.740;10.154;2024-01-11T09:23:58;78.82;;;32.17;;
74363;SDS011;62797;49.740;10.154;2024-01-11T09:26:24;88.80;;;36.35;;
74363;SDS011;62797;49.740;10.154;2024-01-11T09:28:50;91.80;;;38.10;;
74363;SDS011;62797;49.740;10.154;2024-01-11T09:31:19;87.95;;;34.50;;
74363;SDS011;62797;49.740;10.154;2024-01-11T09:33:48;90.78;;;36.00;;
74363;SDS011;62797;49.740;10.154;2024-01-11T09:36:15;87.28;;;34.72;;
74363;SDS011;62797;49.740;10.154;2024-01-11T09:38:41;92.90;;;38.38;;
74363;SDS011;62797;49.740;10.154;2024-01-11T09:41:07;97.82;;;37.78;;
74363;SDS011;62797;49.740;10.154;2024-01-11T09:43:35;94.70;;;35.55;;
74363;SDS011;62797;49.740;10.154;2024-01-11T09:48:40;86.82;;;34.42;;
74363;SDS011;62797;49.740;10.154;2024-01-11T09:51:09;91.13;;;35.92;;
74363;SDS011;62797;49.740;10.154;2024-01-11T09:53:38;78.47;;;31.65;;
74363;SDS011;62797;49.740;10.154;2024-01-11T09:56:07;80.30;;;33.72;;
74363;SDS011;62797;49.740;10.154;2024-01-11T09:58:36;80.68;;;31.90;;
74363;SDS011;62797;49.740;10.154;2024-01-11T10:01:08;84.13;;;33.35;;
74363;SDS011;62797;49.740;10.154;2024-01-11T10:03:40;81.35;;;32.28;;
74363;SDS011;62797;49.740;10.154;2024-01-11T10:06:11;84.10;;;34.55;;
74363;SDS011;62797;49.740;10.154;2024-01-11T10:08:39;85.75;;;32.35;;
74363;SDS011;62797;49.740;10.154;2024-01-11T10:11:06;76.68;;;31.85;;
74363;SDS011;62797;49.740;10.154;2024-01-11T10:13:33;86.30;;;31.35;;
74363;SDS011;62797;49.740;10.154;2024-01-11T10:16:10;69.75;;;26.45;;
74363;SDS011;62797;49.740;10.154;2024-01-11T10:18:41;73.35;;;28.75;;
74363;SDS011;62797;49.740;10.154;2024-01-11T10:21:07;70.40;;;28.02;;
74363;SDS011;62797;49.740;10.154;2024-01-11T10:23:37;72.00;;;28.90;;
74363;SDS011;62797;49.740;10.154;2024-01-11T10:26:06;82.60;;;30.30;;
74363;SDS011;62797;49.740;10.154;2024-01-11T10:28:32;68.32;;;27.75;;
74363;SDS011;62797;49.740;10.154;2024-01-11T10:31:03;71.50;;;28.05;;
74363;SDS011;62797;49.740;10.154;2024-01-11T10:33:33;59.10;;;24.30;;
74363;SDS011;62797;49.740;10.154;2024-01-11T10:35:59;65.95;;;25.67;;
74363;SDS011;62797;49.740;10.154;2024-01-11T10:38:25;64.82;;;25.02;;
74363;SDS011;62797;49.740;10.154;2024-01-11T10:40:55;66.85;;;28.15;;
74363;SDS011;62797;49.740;10.154;2024-01-11T10:43:25;60.70;;;23.98;;
74363;SDS011;62797;49.740;10.154;2024-01-11T10:45:52;68.15;;;27.60;;
74363;SDS011;62797;49.740;10.154;2024-01-11T10:48:24;67.43;;;27.40;;
74363;SDS011;62797;49.740;10.154;2024-01-11T10:50:54;72.75;;;27.60;;
74363;SDS011;62797;49.740;10.154;2024-01-11T10:53:37;70.47;;;26.58;;
74363;SDS011;62797;49.740;10.154;2024-01-11T10:56:09;68.22;;;28.33;;
74363;SDS011;62797;49.740;10.154;2024-01-11T10:58:42;68.70;;;28.73;;
74363;SDS011;62797;49.740;10.154;2024-01-11T11:01:16;60.78;;;24.75;;
74363;SDS011;62797;49.740;10.154;2024-01-11T11:03:53;65.95;;;27.83;;
74363;SDS011;62797;49.740;10.154;2024-01-11T11:06:21;62.58;;;25.85;;
74363;SDS011;62797;49.740;10.154;2024-01-11T11:08:49;73.38;;;29.67;;
74363;SDS011;62797;49.740;10.154;2024-01-11T11:11:16;60.95;;;25.60;;
74363;SDS011;62797;49.740;10.154;2024-01-11T11:13:43;64.80;;;28.00;;
74363;SDS011;62797;49.740;10.154;2024-01-11T11:16:14;69.40;;;28.20;;
74363;SDS011;62797;49.740;10.154;2024-01-11T11:18:50;70.05;;;28.60;;
74363;SDS011;62797;49.740;10.154;2024-01-11T11:21:19;78.78;;;29.63;;
74363;SDS011;62797;49.740;10.154;2024-01-11T11:24:08;64.68;;;27.77;;
74363;SDS011;62797;49.740;10.154;2024-01-11T11:26:33;69.70;;;28.87;;
74363;SDS011;62797;49.740;10.154;2024-01-11T11:29:03;61.20;;;25.83;;
74363;SDS011;62797;49.740;10.154;2024-01-11T11:31:36;67.50;;;28.52;;
74363;SDS011;62797;49.740;10.154;2024-01-11T11:34:42;70.47;;;30.35;;
74363;SDS011;62797;49.740;10.154;2024-01-11T11:37:12;63.33;;;28.33;;
74363;SDS011;62797;49.740;10.154;2024-01-11T11:39:38;66.70;;;27.65;;
74363;SDS011;62797;49.740;10.154;2024-01-11T11:42:06;61.97;;;25.95;;
74363;SDS011;62797;49.740;10.154;2024-01-11T11:44:33;63.80;;;29.48;;
74363;SDS011;62797;49.740;10.154;2024-01-11T11:52:39;50.95;;;23.10;;
74363;SDS011;62797;49.740;10.154;2024-01-11T11:55:07;47.58;;;21.02;;
74363;SDS011;62797;49.740;10.154;2024-01-11T11:57:34;61.92;;;25.42;;
74363;SDS011;62797;49.740;10.154;2024-01-11T12:00:01;52.65;;;21.30;;
74363;SDS011;62797;49.740;10.154;2024-01-11T12:02:36;48.30;;;21.30;;
74363;SDS011;62797;49.740;10.154;2024-01-11T12:05:02;52.47;;;22.15;;
74363;SDS011;62797;49.740;10.154;2024-01-11T12:07:29;45.13;;;21.33;;
74363;SDS011;62797;49.740;10.154;2024-01-11T12:09:55;39.20;;;17.60;;
74363;SDS011;62797;49.740;10.154;2024-01-11T12:12:22;58.90;;;23.63;;
74363;SDS011;62797;49.740;10.154;2024-01-11T12:14:48;55.95;;;23.02;;
74363;SDS011;62797;49.740;10.154;2024-01-11T12:17:15;48.22;;;21.27;;
74363;SDS011;62797;49.740;10.154;2024-01-11T12:19:41;54.28;;;23.52;;
74363;SDS011;62797;49.740;10.154;2024-01-11T12:22:07;45.38;;;21.13;;
74363;SDS011;62797;49.740;10.154;2024-01-11T12:24:33;45.38;;;22.38;;
74363;SDS011;62797;49.740;10.154;2024-01-11T12:26:59;44.08;;;20.02;;
74363;SDS011;62797;49.740;10.154;2024-01-11T12:29:29;48.53;;;20.95;;
74363;SDS011;62797;49.740;10.154;2024-01-11T12:31:58;51.28;;;19.30;;
74363;SDS011;62797;49.740;10.154;2024-01-11T12:34:25;46.42;;;22.13;;
74363;SDS011;62797;49.740;10.154;2024-01-11T12:36:52;46.60;;;19.92;;
74363;SDS011;62797;49.740;10.154;2024-01-11T12:39:25;42.25;;;19.83;;
74363;SDS011;62797;49.740;10.154;2024-01-11T12:41:53;45.10;;;18.17;;
74363;SDS011;62797;49.740;10.154;2024-01-11T12:44:22;43.55;;;19.83;;
74363;SDS011;62797;49.740;10.154;2024-01-11T12:46:51;49.03;;;19.58;;
74363;SDS011;62797;49.740;10.154;2024-01-11T12:51:43;43.20;;;18.92;;
74363;SDS011;62797;49.740;10.154;2024-01-11T12:54:12;46.20;;;19.55;;
74363;SDS011;62797;49.740;10.154;2024-01-11T12:56:42;42.50;;;19.73;;
74363;SDS011;62797;49.740;10.154;2024-01-11T12:59:09;40.55;;;17.52;;
74363;SDS011;62797;49.740;10.154;2024-01-11T13:01:36;45.95;;;19.52;;
74363;SDS011;62797;49.740;10.154;2024-01-11T13:04:03;43.70;;;19.55;;
74363;SDS011;62797;49.740;10.154;2024-01-11T13:06:29;39.42;;;19.50;;
74363;SDS011;62797;49.740;10.154;2024-01-11T13:08:56;46.90;;;19.48;;
74363;SDS011;62797;49.740;10.154;2024-01-11T13:11:22;48.20;;;22.35;;
74363;SDS011;62797;49.740;10.154;2024-01-11T13:13:49;48.58;;;21.48;;
74363;SDS011;62797;49.740;10.154;2024-01-11T13:16:16;45.22;;;20.00;;
74363;SDS011;62797;49.740;10.154;2024-01-11T13:18:44;48.85;;;21.20;;
74363;SDS011;62797;49.740;10.154;2024-01-11T13:23:37;40.90;;;18.80;;
74363;SDS011;62797;49.740;10.154;2024-01-11T13:26:05;49.08;;;19.73;;
74363;SDS011;62797;49.740;10.154;2024-01-11T13:28:32;37.17;;;16.88;;
74363;SDS011;62797;49.740;10.154;2024-01-11T13:31:00;37.22;;;17.17;;
74363;SDS011;62797;49.740;10.154;2024-01-11T13:35:53;45.38;;;18.40;;
74363;SDS011;62797;49.740;10.154;2024-01-11T13:38:19;34.72;;;16.88;;
74363;SDS011;62797;49.740;10.154;2024-01-11T13:40:45;41.03;;;18.48;;
74363;SDS011;62797;49.740;10.154;2024-01-11T13:43:11;42.50;;;18.20;;
74363;SDS011;62797;49.740;10.154;2024-01-11T13:45:36;39.10;;;18.13;;
74363;SDS011;62797;49.740;10.154;2024-01-11T13:48:03;38.30;;;14.52;;
74363;SDS011;62797;49.740;10.154;2024-01-11T13:50:29;41.95;;;18.60;;
74363;SDS011;62797;49.740;10.154;2024-01-11T13:52:55;32.78;;;15.93;;
74363;SDS011;62797;49.740;10.154;2024-01-11T13:55:21;34.10;;;16.25;;
74363;SDS011;62797;49.740;10.154;2024-01-11T13:57:50;37.92;;;17.88;;
74363;SDS011;62797;49.740;10.154;2024-01-11T14:00:18;40.72;;;17.02;;
74363;SDS011;62797;49.740;10.154;2024-01-11T14:05:11;39.63;;;18.80;;
74363;SDS011;62797;49.740;10.154;2024-01-11T14:07:39;40.42;;;18.63;;
74363;SDS011;62797;49.740;10.154;2024-01-11T14:10:06;37.92;;;18.85;;
74363;SDS011;62797;49.740;10.154;2024-01-11T14:12:36;35.70;;;15.40;;
74363;SDS011;62797;49.740;10.154;2024-01-11T14:15:03;36.90;;;17.13;;
74363;SDS011;62797;49.740;10.154;2024-01-11T14:17:30;36.08;;;16.35;;
74363;SDS011;62797;49.740;10.154;2024-01-11T14:19:57;44.20;;;17.98;;
74363;SDS011;62797;49.740;10.154;2024-01-11T14:22:22;36.72;;;18.30;;
74363;SDS011;62797;49.740;10.154;2024-01-11T14:27:15;31.85;;;16.08;;
74363;SDS011;62797;49.740;10.154;2024-01-11T14:29:41;38.55;;;18.15;;
74363;SDS011;62797;49.740;10.154;2024-01-11T14:32:07;38.38;;;17.40;;
74363;SDS011;62797;49.740;10.154;2024-01-11T14:34:33;45.67;;;18.45;;
74363;SDS011;62797;49.740;10.154;2024-01-11T14:36:59;33.60;;;16.15;;
74363;SDS011;62797;49.740;10.154;2024-01-11T14:39:25;38.88;;;17.88;;
74363;SDS011;62797;49.740;10.154;2024-01-11T14:41:54;42.33;;;18.83;;
74363;SDS011;62797;49.740;10.154;2024-01-11T14:44:20;42.25;;;18.65;;
74363;SDS011;62797;49.740;10.154;2024-01-11T14:46:45;22.63;;;11.30;;
74363;SDS011;62797;49.740;10.154;2024-01-11T14:49:11;40.83;;;19.02;;
74363;SDS011;62797;49.740;10.154;2024-01-11T14:51:37;36.38;;;16.73;;
74363;SDS011;62797;49.740;10.154;2024-01-11T14:54:03;53.40;;;20.47;;
74363;SDS011;62797;49.740;10.154;2024-01-11T14:56:30;37.95;;;19.20;;
74363;SDS011;62797;49.740;10.154;2024-01-11T14:58:56;35.72;;;18.77;;
74363;SDS011;62797;49.740;10.154;2024-01-11T15:01:22;33.30;;;15.48;;
74363;SDS011;62797;49.740;10.154;2024-01-11T15:03:47;39.93;;;19.17;;
74363;SDS011;62797;49.740;10.154;2024-01-11T15:06:13;44.43;;;19.23;;
74363;SDS011;62797;49.740;10.154;2024-01-11T15:08:39;49.33;;;21.23;;
74363;SDS011;62797;49.740;10.154;2024-01-11T15:11:05;32.60;;;16.87;;
74363;SDS011;62797;49.740;10.154;2024-01-11T15:13:31;43.95;;;20.52;;
74363;SDS011;62797;49.740;10.154;2024-01-11T15:15:57;45.72;;;20.13;;
74363;SDS011;62797;49.740;10.154;2024-01-11T15:18:22;41.73;;;20.20;;
74363;SDS011;62797;49.740;10.154;2024-01-11T15:20:48;43.63;;;22.52;;
74363;SDS011;62797;49.740;10.154;2024-01-11T15:23:15;49.80;;;21.50;;
74363;SDS011;62797;49.740;10.154;2024-01-11T15:25:41;54.30;;;22.42;;
74363;SDS011;62797;49.740;10.154;2024-01-11T15:28:07;46.92;;;23.50;;
74363;SDS011;62797;49.740;10.154;2024-01-11T15:30:33;53.83;;;24.27;;
74363;SDS011;62797;49.740;10.154;2024-01-11T15:32:59;50.08;;;23.98;;
74363;SDS011;62797;49.740;10.154;2024-01-11T15:35:25;54.00;;;24.08;;
74363;SDS011;62797;49.740;10.154;2024-01-11T15:37:51;49.47;;;21.83;;
74363;SDS011;62797;49.740;10.154;2024-01-11T15:40:16;50.78;;;25.25;;
74363;SDS011;62797;49.740;10.154;2024-01-11T15:42:44;58.47;;;27.42;;
74363;SDS011;62797;49.740;10.154;2024-01-11T15:45:09;73.22;;;31.33;;
74363;SDS011;62797;49.740;10.154;2024-01-11T15:47:38;62.80;;;28.20;;
74363;SDS011;62797;49.740;10.154;2024-01-11T15:50:04;68.90;;;28.48;;
74363;SDS011;62797;49.740;10.154;2024-01-11T15:52:36;58.38;;;29.65;;
74363;SDS011;62797;49.740;10.154;2024-01-11T15:55:03;78.22;;;31.58;;
74363;SDS011;62797;49.740;10.154;2024-01-11T15:57:31;105.80;;;40.45;;
74363;SDS011;62797;49.740;10.154;2024-01-11T15:59:57;100.38;;;38.63;;
74363;SDS011;62797;49.740;10.154;2024-01-11T16:02:23;79.45;;;31.80;;
74363;SDS011;62797;49.740;10.154;2024-01-11T16:04:49;73.43;;;29.60;;
74363;SDS011;62797;49.740;10.154;2024-01-11T16:07:15;68.90;;;30.70;;
74363;SDS011;62797;49.740;10.154;2024-01-11T16:09:42;75.63;;;31.85;;
74363;SDS011;62797;49.740;10.154;2024-01-11T16:12:09;74.88;;;32.95;;
74363;SDS011;62797;49.740;10.154;2024-01-11T16:14:35;64.65;;;29.58;;
74363;SDS011;62797;49.740;10.154;2024-01-11T16:17:01;56.45;;;24.00;;
74363;SDS011;62797;49.740;10.154;2024-01-11T16:19:27;62.92;;;23.42;;
74363;SDS011;62797;49.740;10.154;2024-01-11T16:21:53;69.75;;;24.30;;
74363;SDS011;62797;49.740;10.154;2024-01-11T16:24:19;60.17;;;25.77;;
74363;SDS011;62797;49.740;10.154;2024-01-11T16:26:45;65.68;;;24.17;;
74363;SDS011;62797;49.740;10.154;2024-01-11T16:29:10;53.95;;;23.67;;
74363;SDS011;62797;49.740;10.154;2024-01-11T16:31:36;52.55;;;22.00;;
74363;SDS011;62797;49.740;10.154;2024-01-11T16:34:02;67.55;;;23.25;;
74363;SDS011;62797;49.740;10.154;2024-01-11T16:36:28;56.40;;;24.17;;
74363;SDS011;62797;49.740;10.154;2024-01-11T16:38:54;55.90;;;24.33;;
74363;SDS011;62797;49.740;10.154;2024-01-11T16:41:21;62.28;;;25.48;;
74363;SDS011;62797;49.740;10.154;2024-01-11T16:43:49;57.17;;;25.98;;
74363;SDS011;62797;49.740;10.154;2024-01-11T16:46:18;61.80;;;24.95;;
74363;SDS011;62797;49.740;10.154;2024-01-11T16:48:44;55.00;;;22.23;;
74363;SDS011;62797;49.740;10.154;2024-01-11T16:51:09;55.42;;;24.38;;
74363;SDS011;62797;49.740;10.154;2024-01-11T16:53:35;64.80;;;26.25;;
74363;SDS011;62797;49.740;10.154;2024-01-11T16:56:01;63.90;;;27.67;;
74363;SDS011;62797;49.740;10.154;2024-01-11T16:58:26;67.22;;;29.80;;
74363;SDS011;62797;49.740;10.154;2024-01-11T17:00:52;84.72;;;34.33;;
74363;SDS011;62797;49.740;10.154;2024-01-11T17:03:18;75.30;;;29.55;;
74363;SDS011;62797;49.740;10.154;2024-01-11T17:05:44;71.78;;;29.38;;
74363;SDS011;62797;49.740;10.154;2024-01-11T17:08:11;75.90;;;31.25;;
74363;SDS011;62797;49.740;10.154;2024-01-11T17:10:37;62.22;;;26.80;;
74363;SDS011;62797;49.740;10.154;2024-01-11T17:13:04;75.13;;;27.10;;
74363;SDS011;62797;49.740;10.154;2024-01-11T17:15:30;77.20;;;32.88;;
74363;SDS011;62797;49.740;10.154;2024-01-11T17:17:55;78.97;;;32.63;;
74363;SDS011;62797;49.740;10.154;2024-01-11T17:20:21;68.95;;;30.45;;